Airfield :
LOGIN :

Register | Disclaimer

   EN    FR    IT 

 










Legend :    VFR   Marginal VFR   IFR   Intensive IFR   Very Intensive IFR
Visi :
Ceiling :
>= 8 km
>= 3000ft
5 to 8 km
1000 to 3000 ft
1500m to 5 km
500 to 1000 ft
800 to 1500m
200 to 500 ft
< 800m
< 200 ft
Symbols :   Thunderstorms  Fog  Heavy snow  Heavy precipitations  Wind > 20 kt
SIGMETs :     Misc.  Thunderstorms  Icing  Turbulence  Mountain Waves  Volcanic Ashes







- Airport Elevation : 1000 ft
- IATA code : PEV


LHPP - Pécs Pogany

CURRENT METAR :
  • 170915Z 28006KT 9999 FEW016 BKN083 21/18 Q1010

EXPIRED METARs :
  • 170845Z 28005KT 9999 FEW016 BKN083 20/18 Q1010
  • 170815Z 28006KT 9999 FEW016 BKN083 19/18 Q1010
  • 170745Z 27002KT 9999 FEW016 BKN083 19/18 Q1010 RESHRA
  • 170715Z 31005KT 9999 -SHRA FEW013 FEW020CB OVC083 19/17 Q1010
  • 170645Z 31005KT 9999 -SHRA FEW013 FEW020CB OVC083 18/16 Q1010

TAF TAF LHPP
Valid from the 17 at 09:00 until the 17 at 18:00 UTC


170815Z 1709/1718 VRB03KT 9999 FEW020 SCT040 BKN080
TEMPO 1709/1718 SHRA FEW015 SCT020CB BKN035
PROB30
TEMPO 1709/1718 32015G30KT 5000 TSRA SCT010 SCT020CB BKN035
No reported NOTAMs for that airfield.



MET'MAP, your aeronautical weather chart ! - Copyright ORBIFLY December 2007 - Disclaimer

ORBIFLY MET'MAP TEAM :

Programming & Development : Alexandra Zaïnal
Concept & Development : Baudouin d'Aumeries
Co-Development & Prog : Marc-Olivier Méhu
Technical & hardware support : Manuel Goepfert

Contact : metmap@orbifly.com




SOURCES & CREDITS :

   NOAA